sensor_id;sensor_type;location;lat;lon;timestamp;P1;durP1;ratioP1;P2;durP2;ratioP2
24485;SDS011;13449;49.374;8.584;2023-01-15T00:02:15;0.43;;;0.30;;
24485;SDS011;13449;49.374;8.584;2023-01-15T00:04:43;1.27;;;0.20;;
24485;SDS011;13449;49.374;8.584;2023-01-15T00:07:09;1.75;;;0.20;;
24485;SDS011;13449;49.374;8.584;2023-01-15T00:09:38;0.20;;;0.20;;
24485;SDS011;13449;49.374;8.584;2023-01-15T00:12:04;0.20;;;0.20;;
24485;SDS011;13449;49.374;8.584;2023-01-15T00:14:31;3.00;;;0.20;;
24485;SDS011;13449;49.374;8.584;2023-01-15T00:16:57;0.90;;;0.38;;
24485;SDS011;13449;49.374;8.584;2023-01-15T00:19:24;1.10;;;0.20;;
24485;SDS011;13449;49.374;8.584;2023-01-15T00:21:50;0.40;;;0.30;;
24485;SDS011;13449;49.374;8.584;2023-01-15T00:24:19;0.88;;;0.22;;
24485;SDS011;13449;49.374;8.584;2023-01-15T00:27:09;2.47;;;0.30;;
24485;SDS011;13449;49.374;8.584;2023-01-15T00:29:55;5.75;;;0.52;;
24485;SDS011;13449;49.374;8.584;2023-01-15T00:32:21;1.17;;;0.20;;
24485;SDS011;13449;49.374;8.584;2023-01-15T00:34:48;0.30;;;0.30;;
24485;SDS011;13449;49.374;8.584;2023-01-15T00:37:15;0.40;;;0.30;;
24485;SDS011;13449;49.374;8.584;2023-01-15T00:39:41;0.50;;;0.40;;
24485;SDS011;13449;49.374;8.584;2023-01-15T00:42:10;0.75;;;0.38;;
24485;SDS011;13449;49.374;8.584;2023-01-15T00:44:39;0.85;;;0.30;;
24485;SDS011;13449;49.374;8.584;2023-01-15T00:47:05;0.22;;;0.20;;
24485;SDS011;13449;49.374;8.584;2023-01-15T00:49:34;1.02;;;0.50;;
24485;SDS011;13449;49.374;8.584;2023-01-15T00:52:00;1.88;;;0.25;;
24485;SDS011;13449;49.374;8.584;2023-01-15T00:54:27;0.40;;;0.20;;
24485;SDS011;13449;49.374;8.584;2023-01-15T00:56:53;0.60;;;0.40;;
24485;SDS011;13449;49.374;8.584;2023-01-15T00:59:25;0.93;;;0.22;;
24485;SDS011;13449;49.374;8.584;2023-01-15T01:01:51;0.52;;;0.20;;
24485;SDS011;13449;49.374;8.584;2023-01-15T01:04:18;0.57;;;0.20;;
24485;SDS011;13449;49.374;8.584;2023-01-15T01:06:45;2.72;;;0.30;;
24485;SDS011;13449;49.374;8.584;2023-01-15T01:09:12;0.30;;;0.20;;
24485;SDS011;13449;49.374;8.584;2023-01-15T01:11:40;0.80;;;0.28;;
24485;SDS011;13449;49.374;8.584;2023-01-15T01:14:08;0.55;;;0.45;;
24485;SDS011;13449;49.374;8.584;2023-01-15T01:16:36;0.28;;;0.20;;
24485;SDS011;13449;49.374;8.584;2023-01-15T01:19:05;0.32;;;0.10;;
24485;SDS011;13449;49.374;8.584;2023-01-15T01:21:40;2.70;;;0.30;;
24485;SDS011;13449;49.374;8.584;2023-01-15T01:24:12;0.22;;;0.20;;
24485;SDS011;13449;49.374;8.584;2023-01-15T01:26:44;0.30;;;0.28;;
24485;SDS011;13449;49.374;8.584;2023-01-15T01:29:15;0.40;;;0.28;;
24485;SDS011;13449;49.374;8.584;2023-01-15T01:31:43;0.43;;;0.43;;
24485;SDS011;13449;49.374;8.584;2023-01-15T01:34:12;0.47;;;0.28;;
24485;SDS011;13449;49.374;8.584;2023-01-15T01:36:42;0.20;;;0.20;;
24485;SDS011;13449;49.374;8.584;2023-01-15T01:39:11;1.85;;;0.20;;
24485;SDS011;13449;49.374;8.584;2023-01-15T01:41:43;4.30;;;0.30;;
24485;SDS011;13449;49.374;8.584;2023-01-15T01:46:59;1.67;;;0.30;;
24485;SDS011;13449;49.374;8.584;2023-01-15T01:49:28;0.52;;;0.20;;
24485;SDS011;13449;49.374;8.584;2023-01-15T01:51:57;0.32;;;0.30;;
24485;SDS011;13449;49.374;8.584;2023-01-15T01:54:28;0.55;;;0.10;;
24485;SDS011;13449;49.374;8.584;2023-01-15T01:56:57;0.82;;;0.30;;
24485;SDS011;13449;49.374;8.584;2023-01-15T01:59:24;0.52;;;0.40;;
24485;SDS011;13449;49.374;8.584;2023-01-15T02:01:51;0.20;;;0.20;;
24485;SDS011;13449;49.374;8.584;2023-01-15T02:04:19;0.70;;;0.38;;
24485;SDS011;13449;49.374;8.584;2023-01-15T02:06:53;0.10;;;0.10;;
24485;SDS011;13449;49.374;8.584;2023-01-15T02:09:21;1.75;;;0.30;;
24485;SDS011;13449;49.374;8.584;2023-01-15T02:11:48;0.52;;;0.30;;
24485;SDS011;13449;49.374;8.584;2023-01-15T02:14:31;0.50;;;0.40;;
24485;SDS011;13449;49.374;8.584;2023-01-15T02:17:14;1.40;;;0.20;;
24485;SDS011;13449;49.374;8.584;2023-01-15T02:22:39;0.93;;;0.45;;
24485;SDS011;13449;49.374;8.584;2023-01-15T02:36:38;0.73;;;0.20;;
24485;SDS011;13449;49.374;8.584;2023-01-15T02:39:09;3.60;;;0.20;;
24485;SDS011;13449;49.374;8.584;2023-01-15T02:41:43;0.57;;;0.38;;
24485;SDS011;13449;49.374;8.584;2023-01-15T02:44:21;0.22;;;0.17;;
24485;SDS011;13449;49.374;8.584;2023-01-15T02:46:49;0.60;;;0.35;;
24485;SDS011;13449;49.374;8.584;2023-01-15T02:49:18;4.57;;;0.65;;
24485;SDS011;13449;49.374;8.584;2023-01-15T02:52:23;0.63;;;0.53;;
24485;SDS011;13449;49.374;8.584;2023-01-15T02:54:55;1.23;;;0.52;;
24485;SDS011;13449;49.374;8.584;2023-01-15T02:57:26;1.00;;;0.55;;
24485;SDS011;13449;49.374;8.584;2023-01-15T02:59:55;0.82;;;0.30;;
24485;SDS011;13449;49.374;8.584;2023-01-15T03:02:27;0.90;;;0.43;;
24485;SDS011;13449;49.374;8.584;2023-01-15T03:05:15;0.55;;;0.22;;
24485;SDS011;13449;49.374;8.584;2023-01-15T03:07:50;1.00;;;0.28;;
24485;SDS011;13449;49.374;8.584;2023-01-15T03:10:24;0.30;;;0.30;;
24485;SDS011;13449;49.374;8.584;2023-01-15T03:13:01;0.20;;;0.10;;
24485;SDS011;13449;49.374;8.584;2023-01-15T03:18:21;0.95;;;0.20;;
24485;SDS011;13449;49.374;8.584;2023-01-15T03:20:51;2.15;;;0.28;;
24485;SDS011;13449;49.374;8.584;2023-01-15T03:25:52;0.75;;;0.20;;
24485;SDS011;13449;49.374;8.584;2023-01-15T03:28:22;0.43;;;0.30;;
24485;SDS011;13449;49.374;8.584;2023-01-15T03:33:18;0.13;;;0.10;;
24485;SDS011;13449;49.374;8.584;2023-01-15T03:38:26;0.00;;;0.00;;
24485;SDS011;13449;49.374;8.584;2023-01-15T03:46:24;0.10;;;0.10;;
24485;SDS011;13449;49.374;8.584;2023-01-15T03:54:28;0.10;;;0.10;;
24485;SDS011;13449;49.374;8.584;2023-01-15T03:57:12;0.10;;;0.07;;
24485;SDS011;13449;49.374;8.584;2023-01-15T03:59:49;0.10;;;0.10;;
24485;SDS011;13449;49.374;8.584;2023-01-15T04:02:19;0.35;;;0.22;;
24485;SDS011;13449;49.374;8.584;2023-01-15T04:04:48;0.10;;;0.10;;
24485;SDS011;13449;49.374;8.584;2023-01-15T04:07:18;0.93;;;0.13;;
24485;SDS011;13449;49.374;8.584;2023-01-15T04:09:46;0.13;;;0.10;;
24485;SDS011;13449;49.374;8.584;2023-01-15T04:12:13;0.22;;;0.20;;
24485;SDS011;13449;49.374;8.584;2023-01-15T04:14:40;0.55;;;0.30;;
24485;SDS011;13449;49.374;8.584;2023-01-15T04:17:06;0.45;;;0.45;;
24485;SDS011;13449;49.374;8.584;2023-01-15T04:19:33;0.28;;;0.28;;
24485;SDS011;13449;49.374;8.584;2023-01-15T04:22:00;0.95;;;0.38;;
24485;SDS011;13449;49.374;8.584;2023-01-15T04:24:29;0.57;;;0.40;;
24485;SDS011;13449;49.374;8.584;2023-01-15T04:26:58;0.38;;;0.32;;
24485;SDS011;13449;49.374;8.584;2023-01-15T04:29:30;0.50;;;0.40;;
24485;SDS011;13449;49.374;8.584;2023-01-15T04:31:58;0.50;;;0.35;;
24485;SDS011;13449;49.374;8.584;2023-01-15T04:34:25;0.60;;;0.50;;
24485;SDS011;13449;49.374;8.584;2023-01-15T04:36:53;0.30;;;0.10;;
24485;SDS011;13449;49.374;8.584;2023-01-15T04:39:20;1.38;;;0.20;;
24485;SDS011;13449;49.374;8.584;2023-01-15T04:41:47;0.10;;;0.10;;
24485;SDS011;13449;49.374;8.584;2023-01-15T04:44:36;0.20;;;0.10;;
24485;SDS011;13449;49.374;8.584;2023-01-15T04:47:03;1.27;;;0.10;;
24485;SDS011;13449;49.374;8.584;2023-01-15T04:49:30;0.17;;;0.10;;
24485;SDS011;13449;49.374;8.584;2023-01-15T04:51:57;9.20;;;0.22;;
24485;SDS011;13449;49.374;8.584;2023-01-15T04:54:23;0.10;;;0.00;;
24485;SDS011;13449;49.374;8.584;2023-01-15T04:56:51;0.65;;;0.10;;
24485;SDS011;13449;49.374;8.584;2023-01-15T04:59:20;1.08;;;0.20;;
24485;SDS011;13449;49.374;8.584;2023-01-15T05:01:48;0.60;;;0.28;;
24485;SDS011;13449;49.374;8.584;2023-01-15T05:04:29;0.38;;;0.10;;
24485;SDS011;13449;49.374;8.584;2023-01-15T05:06:56;1.80;;;0.10;;
24485;SDS011;13449;49.374;8.584;2023-01-15T05:09:22;1.17;;;0.60;;
24485;SDS011;13449;49.374;8.584;2023-01-15T05:11:49;1.27;;;0.40;;
24485;SDS011;13449;49.374;8.584;2023-01-15T05:14:21;3.83;;;0.32;;
24485;SDS011;13449;49.374;8.584;2023-01-15T05:16:48;0.45;;;0.40;;
24485;SDS011;13449;49.374;8.584;2023-01-15T05:19:15;0.63;;;0.40;;
24485;SDS011;13449;49.374;8.584;2023-01-15T05:21:43;0.55;;;0.20;;
24485;SDS011;13449;49.374;8.584;2023-01-15T05:24:12;1.85;;;0.60;;
24485;SDS011;13449;49.374;8.584;2023-01-15T05:26:40;2.30;;;0.70;;
24485;SDS011;13449;49.374;8.584;2023-01-15T05:29:09;1.00;;;0.60;;
24485;SDS011;13449;49.374;8.584;2023-01-15T05:31:38;3.00;;;0.73;;
24485;SDS011;13449;49.374;8.584;2023-01-15T05:34:10;1.73;;;0.40;;
24485;SDS011;13449;49.374;8.584;2023-01-15T05:36:37;1.83;;;0.25;;
24485;SDS011;13449;49.374;8.584;2023-01-15T05:39:04;0.70;;;0.20;;
24485;SDS011;13449;49.374;8.584;2023-01-15T05:41:34;3.03;;;0.22;;
24485;SDS011;13449;49.374;8.584;2023-01-15T05:46:51;0.00;;;0.00;;
24485;SDS011;13449;49.374;8.584;2023-01-15T05:49:21;0.75;;;0.17;;
24485;SDS011;13449;49.374;8.584;2023-01-15T05:51:49;0.10;;;0.10;;
24485;SDS011;13449;49.374;8.584;2023-01-15T05:54:22;0.10;;;0.10;;
24485;SDS011;13449;49.374;8.584;2023-01-15T05:56:52;1.08;;;0.20;;
24485;SDS011;13449;49.374;8.584;2023-01-15T05:59:20;0.20;;;0.00;;
24485;SDS011;13449;49.374;8.584;2023-01-15T06:01:50;0.00;;;0.00;;
24485;SDS011;13449;49.374;8.584;2023-01-15T06:04:18;0.00;;;0.00;;
24485;SDS011;13449;49.374;8.584;2023-01-15T06:06:50;0.20;;;0.10;;
24485;SDS011;13449;49.374;8.584;2023-01-15T06:09:19;0.17;;;0.00;;
24485;SDS011;13449;49.374;8.584;2023-01-15T06:11:48;0.60;;;0.05;;
24485;SDS011;13449;49.374;8.584;2023-01-15T06:14:15;0.50;;;0.10;;
24485;SDS011;13449;49.374;8.584;2023-01-15T06:16:45;0.10;;;0.10;;
24485;SDS011;13449;49.374;8.584;2023-01-15T06:19:14;0.03;;;0.03;;
24485;SDS011;13449;49.374;8.584;2023-01-15T06:21:41;0.10;;;0.10;;
24485;SDS011;13449;49.374;8.584;2023-01-15T06:24:08;0.08;;;0.08;;
24485;SDS011;13449;49.374;8.584;2023-01-15T06:26:34;0.57;;;0.10;;
24485;SDS011;13449;49.374;8.584;2023-01-15T06:29:03;1.65;;;0.57;;
24485;SDS011;13449;49.374;8.584;2023-01-15T06:31:29;0.03;;;0.03;;
24485;SDS011;13449;49.374;8.584;2023-01-15T06:33:57;1.13;;;0.13;;
24485;SDS011;13449;49.374;8.584;2023-01-15T06:36:24;2.88;;;0.38;;
24485;SDS011;13449;49.374;8.584;2023-01-15T06:38:52;2.15;;;0.10;;
24485;SDS011;13449;49.374;8.584;2023-01-15T06:41:24;2.00;;;0.00;;
24485;SDS011;13449;49.374;8.584;2023-01-15T06:44:14;0.10;;;0.10;;
24485;SDS011;13449;49.374;8.584;2023-01-15T06:47:01;0.17;;;0.10;;
24485;SDS011;13449;49.374;8.584;2023-01-15T06:49:48;0.10;;;0.05;;
24485;SDS011;13449;49.374;8.584;2023-01-15T06:52:16;1.75;;;0.10;;
24485;SDS011;13449;49.374;8.584;2023-01-15T06:54:43;0.00;;;0.00;;
24485;SDS011;13449;49.374;8.584;2023-01-15T06:57:11;0.73;;;0.10;;
24485;SDS011;13449;49.374;8.584;2023-01-15T06:59:37;0.55;;;0.00;;
24485;SDS011;13449;49.374;8.584;2023-01-15T07:02:04;0.10;;;0.03;;
24485;SDS011;13449;49.374;8.584;2023-01-15T07:04:30;1.13;;;0.10;;
24485;SDS011;13449;49.374;8.584;2023-01-15T07:06:59;0.68;;;0.20;;
24485;SDS011;13449;49.374;8.584;2023-01-15T07:09:26;0.20;;;0.10;;
24485;SDS011;13449;49.374;8.584;2023-01-15T07:11:53;0.47;;;0.15;;
24485;SDS011;13449;49.374;8.584;2023-01-15T07:14:25;0.73;;;0.20;;
24485;SDS011;13449;49.374;8.584;2023-01-15T07:16:56;0.20;;;0.08;;
24485;SDS011;13449;49.374;8.584;2023-01-15T07:19:24;1.27;;;0.43;;
24485;SDS011;13449;49.374;8.584;2023-01-15T07:21:53;0.70;;;0.35;;
24485;SDS011;13449;49.374;8.584;2023-01-15T07:24:23;0.95;;;0.30;;
24485;SDS011;13449;49.374;8.584;2023-01-15T07:26:49;0.10;;;0.10;;
24485;SDS011;13449;49.374;8.584;2023-01-15T07:29:16;0.00;;;0.00;;
24485;SDS011;13449;49.374;8.584;2023-01-15T07:31:44;0.22;;;0.10;;
24485;SDS011;13449;49.374;8.584;2023-01-15T07:34:11;0.00;;;0.00;;
24485;SDS011;13449;49.374;8.584;2023-01-15T07:36:39;0.25;;;0.08;;
24485;SDS011;13449;49.374;8.584;2023-01-15T07:39:08;2.08;;;0.10;;
24485;SDS011;13449;49.374;8.584;2023-01-15T07:41:38;0.85;;;0.20;;
24485;SDS011;13449;49.374;8.584;2023-01-15T07:44:23;0.10;;;0.10;;
24485;SDS011;13449;49.374;8.584;2023-01-15T07:47:18;0.10;;;0.10;;
24485;SDS011;13449;49.374;8.584;2023-01-15T07:50:07;0.45;;;0.22;;
24485;SDS011;13449;49.374;8.584;2023-01-15T07:52:36;0.30;;;0.30;;
24485;SDS011;13449;49.374;8.584;2023-01-15T07:55:08;0.00;;;0.00;;
24485;SDS011;13449;49.374;8.584;2023-01-15T07:57:35;3.63;;;0.20;;
24485;SDS011;13449;49.374;8.584;2023-01-15T08:00:06;0.10;;;0.10;;
24485;SDS011;13449;49.374;8.584;2023-01-15T08:02:35;0.10;;;0.00;;
24485;SDS011;13449;49.374;8.584;2023-01-15T08:05:03;0.17;;;0.10;;
24485;SDS011;13449;49.374;8.584;2023-01-15T08:07:35;0.00;;;0.00;;
24485;SDS011;13449;49.374;8.584;2023-01-15T08:10:03;1.55;;;0.10;;
24485;SDS011;13449;49.374;8.584;2023-01-15T08:12:33;0.25;;;0.15;;
24485;SDS011;13449;49.374;8.584;2023-01-15T08:15:19;0.63;;;0.28;;
24485;SDS011;13449;49.374;8.584;2023-01-15T08:17:46;5.53;;;0.22;;
24485;SDS011;13449;49.374;8.584;2023-01-15T08:20:15;1.55;;;0.28;;
24485;SDS011;13449;49.374;8.584;2023-01-15T08:22:47;0.52;;;0.22;;
24485;SDS011;13449;49.374;8.584;2023-01-15T08:25:15;2.13;;;0.40;;
24485;SDS011;13449;49.374;8.584;2023-01-15T08:27:44;0.70;;;0.10;;
24485;SDS011;13449;49.374;8.584;2023-01-15T08:30:15;0.20;;;0.20;;
24485;SDS011;13449;49.374;8.584;2023-01-15T08:32:43;0.10;;;0.10;;
24485;SDS011;13449;49.374;8.584;2023-01-15T08:35:10;0.47;;;0.38;;
24485;SDS011;13449;49.374;8.584;2023-01-15T08:37:40;0.52;;;0.40;;
24485;SDS011;13449;49.374;8.584;2023-01-15T08:40:10;1.73;;;0.40;;
24485;SDS011;13449;49.374;8.584;2023-01-15T08:42:37;0.40;;;0.40;;
24485;SDS011;13449;49.374;8.584;2023-01-15T08:45:04;1.30;;;0.57;;
24485;SDS011;13449;49.374;8.584;2023-01-15T08:47:31;0.80;;;0.80;;
24485;SDS011;13449;49.374;8.584;2023-01-15T08:49:57;0.50;;;0.50;;
24485;SDS011;13449;49.374;8.584;2023-01-15T08:52:27;0.65;;;0.40;;
24485;SDS011;13449;49.374;8.584;2023-01-15T08:54:54;0.65;;;0.50;;
24485;SDS011;13449;49.374;8.584;2023-01-15T08:57:20;1.23;;;0.73;;
24485;SDS011;13449;49.374;8.584;2023-01-15T08:59:50;1.17;;;0.70;;
24485;SDS011;13449;49.374;8.584;2023-01-15T09:02:16;1.73;;;1.05;;
24485;SDS011;13449;49.374;8.584;2023-01-15T09:04:43;2.35;;;1.17;;
24485;SDS011;13449;49.374;8.584;2023-01-15T09:07:12;1.02;;;0.85;;
24485;SDS011;13449;49.374;8.584;2023-01-15T09:09:38;0.57;;;0.50;;
24485;SDS011;13449;49.374;8.584;2023-01-15T09:12:05;0.43;;;0.40;;
24485;SDS011;13449;49.374;8.584;2023-01-15T09:14:31;0.57;;;0.50;;
24485;SDS011;13449;49.374;8.584;2023-01-15T09:17:22;0.95;;;0.60;;
24485;SDS011;13449;49.374;8.584;2023-01-15T09:19:52;0.73;;;0.32;;
24485;SDS011;13449;49.374;8.584;2023-01-15T09:22:19;0.95;;;0.47;;
24485;SDS011;13449;49.374;8.584;2023-01-15T09:24:45;0.40;;;0.40;;
24485;SDS011;13449;49.374;8.584;2023-01-15T09:27:13;3.60;;;0.70;;
24485;SDS011;13449;49.374;8.584;2023-01-15T09:29:42;0.70;;;0.60;;
24485;SDS011;13449;49.374;8.584;2023-01-15T09:32:09;0.60;;;0.60;;
24485;SDS011;13449;49.374;8.584;2023-01-15T09:34:36;0.55;;;0.40;;
24485;SDS011;13449;49.374;8.584;2023-01-15T09:37:03;0.70;;;0.38;;
24485;SDS011;13449;49.374;8.584;2023-01-15T09:39:29;0.82;;;0.38;;
24485;SDS011;13449;49.374;8.584;2023-01-15T09:42:01;0.38;;;0.35;;
24485;SDS011;13449;49.374;8.584;2023-01-15T09:47:17;0.20;;;0.20;;
24485;SDS011;13449;49.374;8.584;2023-01-15T09:55:28;2.20;;;0.38;;
24485;SDS011;13449;49.374;8.584;2023-01-15T09:57:57;0.40;;;0.40;;
24485;SDS011;13449;49.374;8.584;2023-01-15T10:00:37;0.77;;;0.50;;
24485;SDS011;13449;49.374;8.584;2023-01-15T10:08:55;0.52;;;0.45;;
24485;SDS011;13449;49.374;8.584;2023-01-15T10:11:34;1.13;;;0.57;;
24485;SDS011;13449;49.374;8.584;2023-01-15T10:14:47;1.02;;;0.80;;
24485;SDS011;13449;49.374;8.584;2023-01-15T10:17:27;0.93;;;0.60;;
24485;SDS011;13449;49.374;8.584;2023-01-15T10:20:13;4.45;;;1.50;;
24485;SDS011;13449;49.374;8.584;2023-01-15T10:23:10;1.00;;;0.80;;
24485;SDS011;13449;49.374;8.584;2023-01-15T10:26:01;2.67;;;0.68;;
24485;SDS011;13449;49.374;8.584;2023-01-15T10:37:11;4.18;;;0.30;;
24485;SDS011;13449;49.374;8.584;2023-01-15T10:44:48;1.48;;;0.60;;
24485;SDS011;13449;49.374;8.584;2023-01-15T10:47:36;5.03;;;0.43;;
24485;SDS011;13449;49.374;8.584;2023-01-15T10:50:18;1.38;;;0.60;;
24485;SDS011;13449;49.374;8.584;2023-01-15T10:52:48;0.73;;;0.45;;
24485;SDS011;13449;49.374;8.584;2023-01-15T10:55:26;3.05;;;1.30;;
24485;SDS011;13449;49.374;8.584;2023-01-15T11:00:45;4.13;;;1.77;;
24485;SDS011;13449;49.374;8.584;2023-01-15T11:03:19;2.13;;;1.13;;
24485;SDS011;13449;49.374;8.584;2023-01-15T11:05:53;1.80;;;1.00;;
24485;SDS011;13449;49.374;8.584;2023-01-15T11:08:23;1.83;;;0.88;;
24485;SDS011;13449;49.374;8.584;2023-01-15T11:11:20;1.10;;;0.60;;
24485;SDS011;13449;49.374;8.584;2023-01-15T11:14:41;4.28;;;2.42;;
24485;SDS011;13449;49.374;8.584;2023-01-15T11:17:30;12.13;;;2.92;;
24485;SDS011;13449;49.374;8.584;2023-01-15T11:22:56;1.45;;;0.88;;
24485;SDS011;13449;49.374;8.584;2023-01-15T11:25:35;1.73;;;1.13;;
24485;SDS011;13449;49.374;8.584;2023-01-15T11:28:12;3.88;;;1.30;;
24485;SDS011;13449;49.374;8.584;2023-01-15T11:33:27;2.22;;;1.50;;
24485;SDS011;13449;49.374;8.584;2023-01-15T11:36:18;1.27;;;0.70;;
24485;SDS011;13449;49.374;8.584;2023-01-15T11:38:47;2.53;;;1.40;;
24485;SDS011;13449;49.374;8.584;2023-01-15T11:41:37;3.65;;;1.70;;
24485;SDS011;13449;49.374;8.584;2023-01-15T11:44:22;6.97;;;2.40;;
24485;SDS011;13449;49.374;8.584;2023-01-15T11:47:10;6.32;;;1.67;;
24485;SDS011;13449;49.374;8.584;2023-01-15T11:50:01;5.05;;;2.55;;
24485;SDS011;13449;49.374;8.584;2023-01-15T11:52:47;8.88;;;2.30;;
24485;SDS011;13449;49.374;8.584;2023-01-15T11:55:18;4.70;;;1.20;;
24485;SDS011;13449;49.374;8.584;2023-01-15T11:57:48;3.90;;;1.88;;
24485;SDS011;13449;49.374;8.584;2023-01-15T12:02:51;3.10;;;1.17;;
24485;SDS011;13449;49.374;8.584;2023-01-15T12:05:26;5.85;;;1.20;;
24485;SDS011;13449;49.374;8.584;2023-01-15T12:07:56;4.13;;;1.10;;
24485;SDS011;13449;49.374;8.584;2023-01-15T12:10:32;3.85;;;1.17;;
24485;SDS011;13449;49.374;8.584;2023-01-15T12:13:36;6.78;;;1.67;;
24485;SDS011;13449;49.374;8.584;2023-01-15T12:31:00;2.47;;;1.20;;
24485;SDS011;13449;49.374;8.584;2023-01-15T12:38:49;3.97;;;2.17;;
24485;SDS011;13449;49.374;8.584;2023-01-15T12:41:24;7.93;;;2.78;;
24485;SDS011;13449;49.374;8.584;2023-01-15T12:44:17;10.00;;;2.65;;
24485;SDS011;13449;49.374;8.584;2023-01-15T12:47:09;6.43;;;2.70;;
24485;SDS011;13449;49.374;8.584;2023-01-15T12:49:42;8.77;;;3.40;;
24485;SDS011;13449;49.374;8.584;2023-01-15T12:52:15;3.08;;;1.05;;
24485;SDS011;13449;49.374;8.584;2023-01-15T12:55:35;2.53;;;0.93;;
24485;SDS011;13449;49.374;8.584;2023-01-15T12:57:48;4.85;;;1.25;;
24485;SDS011;13449;49.374;8.584;2023-01-15T13:00:28;3.72;;;0.82;;
24485;SDS011;13449;49.374;8.584;2023-01-15T13:05:38;1.77;;;0.50;;
24485;SDS011;13449;49.374;8.584;2023-01-15T13:11:03;0.77;;;0.40;;
24485;SDS011;13449;49.374;8.584;2023-01-15T13:13:32;3.45;;;0.40;;
24485;SDS011;13449;49.374;8.584;2023-01-15T13:21:53;4.78;;;0.60;;
24485;SDS011;13449;49.374;8.584;2023-01-15T13:32:32;1.70;;;0.38;;
24485;SDS011;13449;49.374;8.584;2023-01-15T13:35:06;4.22;;;1.17;;
24485;SDS011;13449;49.374;8.584;2023-01-15T13:37:48;3.35;;;0.77;;
24485;SDS011;13449;49.374;8.584;2023-01-15T13:40:29;3.92;;;1.00;;
24485;SDS011;13449;49.374;8.584;2023-01-15T13:43:00;10.55;;;1.40;;
24485;SDS011;13449;49.374;8.584;2023-01-15T13:45:36;8.18;;;1.35;;
24485;SDS011;13449;49.374;8.584;2023-01-15T13:48:13;0.63;;;0.40;;
24485;SDS011;13449;49.374;8.584;2023-01-15T13:50:50;4.35;;;0.60;;
24485;SDS011;13449;49.374;8.584;2023-01-15T13:56:31;2.58;;;1.02;;
24485;SDS011;13449;49.374;8.584;2023-01-15T13:59:04;2.85;;;1.02;;
24485;SDS011;13449;49.374;8.584;2023-01-15T14:01:51;4.18;;;1.42;;
24485;SDS011;13449;49.374;8.584;2023-01-15T14:04:30;6.15;;;2.35;;
24485;SDS011;13449;49.374;8.584;2023-01-15T14:07:01;5.30;;;1.35;;
24485;SDS011;13449;49.374;8.584;2023-01-15T14:09:28;3.50;;;0.73;;
24485;SDS011;13449;49.374;8.584;2023-01-15T14:26:24;5.15;;;1.27;;
24485;SDS011;13449;49.374;8.584;2023-01-15T14:34:18;2.17;;;0.65;;
24485;SDS011;13449;49.374;8.584;2023-01-15T14:36:59;4.50;;;0.70;;
24485;SDS011;13449;49.374;8.584;2023-01-15T14:39:37;3.83;;;0.85;;
24485;SDS011;13449;49.374;8.584;2023-01-15T14:47:42;1.42;;;0.85;;
24485;SDS011;13449;49.374;8.584;2023-01-15T14:55:50;1.47;;;0.87;;
24485;SDS011;13449;49.374;8.584;2023-01-15T14:58:35;2.05;;;0.88;;
24485;SDS011;13449;49.374;8.584;2023-01-15T15:06:21;0.70;;;0.70;;
24485;SDS011;13449;49.374;8.584;2023-01-15T15:08:49;4.28;;;1.00;;
24485;SDS011;13449;49.374;8.584;2023-01-15T15:11:32;2.95;;;0.40;;
24485;SDS011;13449;49.374;8.584;2023-01-15T15:14:22;4.18;;;0.52;;
24485;SDS011;13449;49.374;8.584;2023-01-15T15:16:56;4.43;;;0.68;;
24485;SDS011;13449;49.374;8.584;2023-01-15T15:19:27;3.10;;;1.13;;
24485;SDS011;13449;49.374;8.584;2023-01-15T15:22:01;5.80;;;2.72;;
24485;SDS011;13449;49.374;8.584;2023-01-15T15:24:35;4.72;;;1.75;;
24485;SDS011;13449;49.374;8.584;2023-01-15T15:29:43;1.02;;;0.65;;
24485;SDS011;13449;49.374;8.584;2023-01-15T15:32:13;5.63;;;1.10;;
24485;SDS011;13449;49.374;8.584;2023-01-15T15:34:44;3.97;;;1.48;;
24485;SDS011;13449;49.374;8.584;2023-01-15T15:37:16;3.65;;;1.02;;
24485;SDS011;13449;49.374;8.584;2023-01-15T15:45:22;4.97;;;2.22;;
24485;SDS011;13449;49.374;8.584;2023-01-15T15:48:13;3.97;;;1.17;;
24485;SDS011;13449;49.374;8.584;2023-01-15T15:51:01;5.05;;;2.25;;
24485;SDS011;13449;49.374;8.584;2023-01-15T15:53:28;7.55;;;2.03;;
24485;SDS011;13449;49.374;8.584;2023-01-15T15:55:57;5.72;;;1.30;;
24485;SDS011;13449;49.374;8.584;2023-01-15T15:58:33;1.92;;;0.90;;
24485;SDS011;13449;49.374;8.584;2023-01-15T16:01:02;5.75;;;0.70;;
24485;SDS011;13449;49.374;8.584;2023-01-15T16:03:30;5.07;;;0.80;;
24485;SDS011;13449;49.374;8.584;2023-01-15T16:08:25;0.93;;;0.43;;
24485;SDS011;13449;49.374;8.584;2023-01-15T16:10:57;5.07;;;1.45;;
24485;SDS011;13449;49.374;8.584;2023-01-15T16:16:07;1.20;;;0.60;;
24485;SDS011;13449;49.374;8.584;2023-01-15T16:18:54;2.97;;;1.27;;
24485;SDS011;13449;49.374;8.584;2023-01-15T16:21:28;5.40;;;1.35;;
24485;SDS011;13449;49.374;8.584;2023-01-15T16:24:05;6.78;;;1.70;;
24485;SDS011;13449;49.374;8.584;2023-01-15T16:26:51;6.55;;;1.42;;
24485;SDS011;13449;49.374;8.584;2023-01-15T16:29:25;7.00;;;1.23;;
24485;SDS011;13449;49.374;8.584;2023-01-15T16:31:54;3.63;;;1.05;;
24485;SDS011;13449;49.374;8.584;2023-01-15T16:34:23;4.43;;;1.55;;
24485;SDS011;13449;49.374;8.584;2023-01-15T16:36:53;12.50;;;4.03;;
24485;SDS011;13449;49.374;8.584;2023-01-15T16:39:24;4.00;;;1.42;;
24485;SDS011;13449;49.374;8.584;2023-01-15T16:41:54;3.55;;;1.65;;
24485;SDS011;13449;49.374;8.584;2023-01-15T16:44:24;3.03;;;1.52;;
24485;SDS011;13449;49.374;8.584;2023-01-15T16:46:54;6.28;;;2.28;;
24485;SDS011;13449;49.374;8.584;2023-01-15T16:49:26;5.38;;;1.90;;
24485;SDS011;13449;49.374;8.584;2023-01-15T16:51:58;1.10;;;0.63;;
24485;SDS011;13449;49.374;8.584;2023-01-15T16:56:59;8.10;;;1.27;;
24485;SDS011;13449;49.374;8.584;2023-01-15T17:01:57;2.05;;;0.52;;
24485;SDS011;13449;49.374;8.584;2023-01-15T17:04:35;1.95;;;0.60;;
24485;SDS011;13449;49.374;8.584;2023-01-15T17:07:07;6.85;;;1.30;;
24485;SDS011;13449;49.374;8.584;2023-01-15T17:09:57;7.82;;;0.82;;
24485;SDS011;13449;49.374;8.584;2023-01-15T17:12:27;6.30;;;1.13;;
24485;SDS011;13449;49.374;8.584;2023-01-15T17:14:59;1.75;;;1.23;;
24485;SDS011;13449;49.374;8.584;2023-01-15T17:17:52;2.70;;;0.73;;
24485;SDS011;13449;49.374;8.584;2023-01-15T17:20:20;6.38;;;2.05;;
24485;SDS011;13449;49.374;8.584;2023-01-15T17:22:59;14.38;;;2.58;;
24485;SDS011;13449;49.374;8.584;2023-01-15T17:25:33;13.27;;;3.95;;
24485;SDS011;13449;49.374;8.584;2023-01-15T17:28:00;5.95;;;2.67;;
24485;SDS011;13449;49.374;8.584;2023-01-15T17:30:34;9.05;;;2.38;;
24485;SDS011;13449;49.374;8.584;2023-01-15T17:33:01;8.23;;;4.60;;
24485;SDS011;13449;49.374;8.584;2023-01-15T17:35:31;12.05;;;5.65;;
24485;SDS011;13449;49.374;8.584;2023-01-15T17:38:00;3.28;;;1.65;;
24485;SDS011;13449;49.374;8.584;2023-01-15T17:40:30;2.88;;;1.60;;
24485;SDS011;13449;49.374;8.584;2023-01-15T17:42:58;7.25;;;3.22;;
24485;SDS011;13449;49.374;8.584;2023-01-15T17:45:26;4.63;;;1.77;;
24485;SDS011;13449;49.374;8.584;2023-01-15T17:47:57;9.07;;;4.07;;
24485;SDS011;13449;49.374;8.584;2023-01-15T17:50:24;12.60;;;6.75;;
24485;SDS011;13449;49.374;8.584;2023-01-15T17:52:52;8.82;;;2.35;;
24485;SDS011;13449;49.374;8.584;2023-01-15T17:55:20;3.28;;;2.70;;
24485;SDS011;13449;49.374;8.584;2023-01-15T17:58:10;6.18;;;2.53;;
24485;SDS011;13449;49.374;8.584;2023-01-15T18:00:56;3.42;;;2.00;;
24485;SDS011;13449;49.374;8.584;2023-01-15T18:03:49;10.93;;;3.25;;
24485;SDS011;13449;49.374;8.584;2023-01-15T18:06:35;6.47;;;2.35;;
24485;SDS011;13449;49.374;8.584;2023-01-15T18:09:04;7.65;;;3.60;;
24485;SDS011;13449;49.374;8.584;2023-01-15T18:11:32;10.25;;;2.90;;
24485;SDS011;13449;49.374;8.584;2023-01-15T18:13:59;10.13;;;3.65;;
24485;SDS011;13449;49.374;8.584;2023-01-15T18:16:26;16.05;;;5.18;;
24485;SDS011;13449;49.374;8.584;2023-01-15T18:18:53;11.15;;;4.97;;